Terminal Aerodrome Forecast
Issued by NWS

Home | Current Version | Previous Version | Text Only | Print | Product List | Glossary On
Versions: 1 2 3 4 5 6 7 8 9 10 11 12 13 14 15 16 17 18 19 20 21 22 23 24 25
000
FTUS44 KEWX 240700 AAA
TAFSSF
TAF AMD
KSSF 240716Z 2407/2506 14010KT P6SM SKC
     FM240900 14005KT P6SM OVC012
     FM241500 16010KT P6SM BKN015
     FM241700 16010KT P6SM BKN025
     FM241900 16010KT P6SM SCT040
     FM250000 05005KT P6SM SCT250=

USA.gov is the U.S. government's official web portal to all federal, state and local government web resources and services.